Time;durP1;ratioP1;P1;durP2;ratioP2;P2;SDS_P1;SDS_P2;PMS_P1;PMS_P2;Temp;Humidity;BMP_temperature;BMP_pressure;BME280_temperature;BME280_humidity;BME280_pressure;Samples;Min_cycle;Max_cycle;Signal;HPM_P1;HPM_P2
2022/05/24 00:01:05;;;;;;;9.50;5.78;;;;;;;18.37;73.88;99462.44;5105310;27;20089;-69
2022/05/24 00:03:31;;;;;;;7.28;5.90;;;;;;;18.93;72.92;99453.84;5105410;27;20066;-70
2022/05/24 00:05:58;;;;;;;10.77;6.68;;;;;;;19.00;72.84;99454.00;5107429;27;20112;-70
2022/05/24 00:08:24;;;;;;;10.88;5.85;;;;;;;19.26;71.22;99448.53;5106543;27;20672;-69
2022/05/24 00:10:53;;;;;;;8.45;6.05;;;;;;;19.00;72.98;99454.00;5104056;27;20092;-69
2022/05/24 00:13:20;;;;;;;12.35;6.40;;;;;;;18.96;74.39;99452.66;5107704;27;20483;-69
2022/05/24 00:15:47;;;;;;;9.73;6.55;;;;;;;19.24;72.87;99450.56;5105540;27;20509;-69
2022/05/24 00:18:16;;;;;;;9.52;6.40;;;;;;;19.76;70.79;99446.56;5104327;27;20061;-69
2022/05/24 00:20:45;;;;;;;9.10;6.85;;;;;;;19.16;74.30;99445.22;5106207;27;20056;-69
2022/05/24 00:23:12;;;;;;;13.05;7.18;;;;;;;18.94;74.86;99449.34;5105421;27;20040;-69
2022/05/24 00:25:42;;;;;;;10.13;7.03;;;;;;;18.86;76.34;99457.31;5103546;27;20563;-69
2022/05/24 00:28:09;;;;;;;11.32;6.75;;;;;;;19.04;75.76;99452.69;5106786;27;20471;-69
2022/05/24 00:30:36;;;;;;;9.45;7.40;;;;;;;18.91;76.25;99455.84;5105549;27;20207;-69
2022/05/24 00:33:04;;;;;;;9.02;7.30;;;;;;;19.05;75.50;99457.00;5103695;27;20048;-69
2022/05/24 00:35:30;;;;;;;10.13;7.25;;;;;;;19.14;75.04;99456.00;5104086;28;20039;-69
2022/05/24 00:37:57;;;;;;;10.45;7.10;;;;;;;19.30;74.34;99461.34;5107131;27;20472;-69
2022/05/24 00:40:34;;;;;;;11.75;6.75;;;;;;;19.33;74.90;99461.00;5104534;27;20040;-69
2022/05/24 00:43:04;;;;;;;11.68;7.70;;;;;;;19.33;75.02;99452.19;5105825;27;20097;-69
2022/05/24 00:45:35;;;;;;;11.57;7.03;;;;;;;19.25;76.17;99455.69;5102465;27;20059;-69
2022/05/24 00:48:07;;;;;;;13.35;7.05;;;;;;;19.31;75.97;99440.91;5107282;27;20047;-69
2022/05/24 00:50:38;;;;;;;11.30;6.72;;;;;;;19.35;75.96;99443.09;5106019;28;20039;-69
2022/05/24 00:53:08;;;;;;;10.90;7.60;;;;;;;18.44;80.37;99447.53;5105045;28;20522;-69
2022/05/24 00:55:43;;;;;;;9.80;7.13;;;;;;;18.17;82.16;99450.41;5104470;27;20463;-69
2022/05/24 01:15:38;;;;;;;9.75;5.50;;;;;;;18.47;85.11;99468.47;5095849;27;20074;-70
2022/05/24 01:18:06;;;;;;;7.13;5.32;;;;;;;18.40;84.96;99470.06;5094467;28;20058;-69
2022/05/24 01:20:33;;;;;;;11.20;5.80;;;;;;;18.66;83.98;99461.25;5103708;28;20101;-70
2022/05/24 01:23:12;;;;;;;9.30;5.60;;;;;;;19.04;82.69;99460.66;5104710;27;20096;-70
2022/05/24 01:25:46;;;;;;;11.15;5.25;;;;;;;19.07;81.99;99470.16;5103488;27;20193;-70
2022/05/24 01:28:20;;;;;;;13.68;5.47;;;;;;;19.05;82.22;99472.94;5105822;27;20043;-70
2022/05/24 01:30:46;;;;;;;8.15;4.90;;;;;;;18.75;84.11;99476.19;5103450;27;20052;-70
2022/05/24 01:36:12;;;;;;;11.95;4.82;;;;;;;18.35;87.54;99484.81;5104004;27;20940;-70
2022/05/24 01:38:41;;;;;;;;;;;;;;;18.42;87.49;99485.84;5106223;27;20078;-70
2022/05/24 01:41:09;;;;;;;8.25;4.47;;;;;;;18.06;88.95;99479.88;5106945;27;19924;-70
2022/05/24 01:43:39;;;;;;;6.93;4.35;;;;;;;18.49;86.93;99481.56;5106437;27;20338;-70
2022/05/24 01:46:09;;;;;;;7.10;4.25;;;;;;;18.66;86.60;99478.00;5108481;27;20100;-70
2022/05/24 01:48:41;;;;;;;9.45;4.50;;;;;;;18.34;88.31;99491.94;5108165;27;20047;-70
2022/05/24 01:51:11;;;;;;;6.63;4.35;;;;;;;18.60;87.12;99488.44;5107698;27;20050;-70
2022/05/24 01:53:42;;;;;;;8.38;4.20;;;;;;;18.56;87.54;99495.88;5109630;27;20039;-70
2022/05/24 01:56:13;;;;;;;4.95;3.42;;;;;;;18.82;86.54;99498.47;5108765;27;20067;-70
2022/05/24 01:58:44;;;;;;;8.02;4.55;;;;;;;18.77;86.64;99496.28;5109928;27;20050;-70
2022/05/24 02:01:20;;;;;;;6.30;3.70;;;;;;;18.87;86.42;99497.00;5108059;27;20044;-70
2022/05/24 02:03:46;;;;;;;6.65;3.88;;;;;;;19.14;84.32;99501.19;5108885;27;20495;-70
2022/05/24 02:06:21;;;;;;;7.25;3.75;;;;;;;19.21;84.25;99504.88;5110626;27;20044;-70
2022/05/24 02:08:47;;;;;;;4.85;3.33;;;;;;;19.44;82.96;99505.91;5108896;27;20124;-70
2022/05/24 02:11:16;;;;;;;7.05;3.85;;;;;;;19.55;82.17;99517.22;5109203;27;20054;-70
2022/05/24 02:13:48;;;;;;;9.38;4.03;;;;;;;19.75;81.26;99526.50;5106930;27;20047;-70
2022/05/24 02:16:21;;;;;;;4.70;3.30;;;;;;;19.20;83.52;99521.81;5108502;27;20139;-70
2022/05/24 02:18:48;;;;;;;;;;;;;;;19.20;83.06;99521.81;5108701;27;20044;-70
2022/05/24 02:21:14;;;;;;;5.13;3.90;;;;;;;19.24;83.22;99524.97;5106905;27;19955;-71
2022/05/24 02:23:43;;;;;;;6.88;3.67;;;;;;;18.83;83.84;99532.00;5108395;27;20059;-70
2022/05/24 02:26:12;;;;;;;6.28;3.60;;;;;;;18.51;84.32;99534.50;5109836;27;20433;-70
2022/05/24 02:28:38;;;;;;;6.03;3.53;;;;;;;18.63;83.41;99550.00;5105937;27;20419;-70
2022/05/24 02:31:09;;;;;;;5.20;3.85;;;;;;;18.57;82.47;99541.84;5108064;27;20635;-70
2022/05/24 02:33:36;;;;;;;6.15;3.58;;;;;;;18.42;81.69;99545.06;5108341;27;20624;-70
2022/05/24 02:36:03;;;;;;;7.47;4.32;;;;;;;18.48;80.41;99552.38;5106153;28;20089;-70
2022/05/24 02:38:30;;;;;;;12.90;4.20;;;;;;;18.29;79.76;99559.75;5111506;27;20126;-70
2022/05/24 02:43:41;;;;;;;5.85;4.20;;;;;;;18.39;78.60;99565.78;5108659;27;20133;-71
2022/05/24 02:46:10;;;;;;;5.45;4.50;;;;;;;18.35;78.90;99578.53;5107994;27;20047;-70
2022/05/24 02:48:37;;;;;;;7.30;4.30;;;;;;;18.49;77.79;99575.28;5107439;27;20453;-70
2022/05/24 02:51:09;;;;;;;9.70;4.30;;;;;;;18.14;78.48;99579.88;5106056;27;20039;-70
2022/05/24 02:53:36;;;;;;;6.93;4.60;;;;;;;18.06;79.75;99585.97;5108812;28;20128;-70
2022/05/24 02:56:03;;;;;;;6.80;4.90;;;;;;;18.00;79.38;99598.00;5108606;27;20043;-70
2022/05/24 02:58:29;;;;;;;6.53;5.18;;;;;;;18.24;78.69;99602.69;5107020;27;20050;-71
2022/05/24 03:00:55;;;;;;;8.18;5.40;;;;;;;18.10;78.60;99602.41;5106827;27;20116;-70
2022/05/24 03:03:23;;;;;;;7.38;5.72;;;;;;;17.75;79.63;99612.06;5107066;27;20043;-70
2022/05/24 03:05:49;;;;;;;11.05;6.00;;;;;;;17.70;79.58;99613.53;5107070;27;20051;-70
2022/05/24 03:11:00;;;;;;;10.80;5.97;;;;;;;17.31;81.03;99618.22;5104844;28;20054;-70
2022/05/24 03:16:13;;;;;;;10.43;5.47;;;;;;;17.44;79.60;99626.66;5106593;27;20524;-70
2022/05/24 03:18:42;;;;;;;10.07;5.55;;;;;;;17.31;79.38;99632.28;5108389;27;20101;-70
2022/05/24 03:21:10;;;;;;;7.18;5.75;;;;;;;17.39;79.38;99639.50;5106110;27;20043;-70
2022/05/24 03:23:36;;;;;;;11.77;6.13;;;;;;;17.47;78.34;99640.44;5107859;27;20092;-71
2022/05/24 03:26:04;;;;;;;13.45;5.80;;;;;;;17.32;78.03;99639.28;5108348;27;20044;-71
2022/05/24 03:28:30;;;;;;;9.00;6.13;;;;;;;17.24;78.64;99646.28;5106914;27;20055;-70
2022/05/24 03:30:57;;;;;;;7.90;5.63;;;;;;;17.25;78.19;99654.09;5106537;27;20039;-70
2022/05/24 03:33:24;;;;;;;8.73;5.47;;;;;;;17.33;76.89;99646.22;5107844;27;20088;-70
2022/05/24 03:35:52;;;;;;;10.65;6.00;;;;;;;17.42;76.17;99655.09;5106687;27;20047;-70
2022/05/24 03:38:18;;;;;;;8.63;5.95;;;;;;;17.41;76.02;99666.66;5106725;27;20392;-71
2022/05/24 03:40:44;;;;;;;9.18;6.10;;;;;;;17.39;76.08;99666.84;5107110;27;20048;-70
2022/05/24 03:43:13;;;;;;;7.57;5.72;;;;;;;17.24;76.50;99670.13;5107145;27;20043;-70
2022/05/24 03:45:39;;;;;;;10.05;5.80;;;;;;;17.61;75.05;99678.03;5106039;27;20325;-70
2022/05/24 03:48:06;;;;;;;8.35;5.50;;;;;;;17.77;74.25;99672.91;5106912;27;20647;-70
2022/05/24 03:50:33;;;;;;;10.90;6.18;;;;;;;17.69;74.21;99678.13;5105296;27;20395;-70
2022/05/24 03:53:01;;;;;;;8.95;5.70;;;;;;;17.64;73.83;99685.69;5107122;27;20050;-71
2022/05/24 03:55:27;;;;;;;6.50;5.18;;;;;;;17.65;73.86;99690.00;5108373;27;20044;-71
2022/05/24 03:58:02;;;;;;;9.05;6.07;;;;;;;17.52;73.87;99685.84;5105662;27;20063;-71
2022/05/24 04:00:32;;;;;;;8.23;6.07;;;;;;;17.67;73.49;99682.72;5099205;27;20483;-70
2022/05/24 04:02:58;;;;;;;12.15;5.95;;;;;;;17.67;73.54;99695.97;5105558;28;20120;-70
2022/05/24 04:05:25;;;;;;;8.70;5.45;;;;;;;17.45;73.72;99703.34;5105937;28;20488;-70
2022/05/24 04:07:52;;;;;;;10.88;5.80;;;;;;;17.64;72.71;99693.63;5106196;27;20043;-70
2022/05/24 04:10:20;;;;;;;8.25;5.80;;;;;;;18.12;70.98;99701.22;5106287;28;20054;-71
2022/05/24 04:12:47;;;;;;;7.65;4.68;;;;;;;17.93;70.71;99712.81;5105956;28;20059;-70
2022/05/24 04:15:14;;;;;;;6.03;4.60;;;;;;;17.43;70.78;99707.13;5104614;27;20050;-70
2022/05/24 04:17:40;;;;;;;6.72;4.45;;;;;;;17.46;71.17;99710.31;5105615;28;20507;-70
2022/05/24 04:20:09;;;;;;;6.15;4.53;;;;;;;17.67;70.31;99718.03;5106593;27;20040;-70
2022/05/24 04:22:36;;;;;;;11.10;4.93;;;;;;;17.74;69.53;99708.47;5106676;27;20135;-70
2022/05/24 04:25:03;;;;;;;9.38;4.78;;;;;;;17.76;69.31;99716.31;5105707;28;20108;-71
2022/05/24 04:27:31;;;;;;;8.30;4.70;;;;;;;18.05;68.11;99711.63;5106770;28;20636;-71
2022/05/24 04:29:57;;;;;;;9.00;4.72;;;;;;;18.12;68.08;99720.63;5105387;27;20039;-71
2022/05/24 04:32:23;;;;;;;8.15;4.43;;;;;;;18.48;66.36;99732.91;5105117;27;20391;-71
2022/05/24 04:34:50;;;;;;;8.73;4.00;;;;;;;18.53;66.79;99742.25;5105019;28;20096;-71
2022/05/24 04:37:16;;;;;;;7.60;4.38;;;;;;;18.59;65.79;99741.66;5106068;28;20112;-71
2022/05/24 04:39:43;;;;;;;17.58;4.78;;;;;;;18.56;65.50;99742.78;5103914;28;20428;-71
2022/05/24 04:42:24;;;;;;;7.13;4.28;;;;;;;18.60;65.73;99746.78;5106818;28;20403;-71
2022/05/24 04:44:56;;;;;;;10.60;5.28;;;;;;;19.01;64.77;99739.94;5105721;27;20419;-71
2022/05/24 04:47:24;;;;;;;6.70;4.10;;;;;;;18.92;64.52;99752.31;5106756;27;20054;-71
2022/05/24 04:49:54;;;;;;;10.20;4.05;;;;;;;18.82;64.12;99745.44;5106247;27;20519;-71
2022/05/24 04:52:23;;;;;;;7.68;4.13;;;;;;;18.47;64.47;99749.00;5105924;27;20517;-70
2022/05/24 04:54:50;;;;;;;7.00;3.95;;;;;;;18.93;63.40;99750.50;5107272;27;20043;-70
2022/05/24 04:57:16;;;;;;;5.63;3.40;;;;;;;18.76;63.39;99746.94;5105089;27;20051;-70
2022/05/24 04:59:43;;;;;;;5.63;3.92;;;;;;;18.72;62.78;99750.88;5104019;27;20047;-70
2022/05/24 05:02:11;;;;;;;5.70;3.22;;;;;;;18.57;63.09;99749.75;5106274;27;20065;-71
2022/05/24 05:04:37;;;;;;;5.55;3.28;;;;;;;18.73;63.30;99757.03;5105622;27;20113;-71
2022/05/24 05:07:05;;;;;;;4.50;3.17;;;;;;;18.02;64.53;99764.97;5104515;27;20422;-70
2022/05/24 05:09:35;;;;;;;3.85;3.00;;;;;;;17.71;66.07;99760.97;5105106;27;20043;-71
2022/05/24 05:12:03;;;;;;;9.20;3.38;;;;;;;17.88;65.08;99755.72;5105596;28;20052;-70
2022/05/24 05:14:29;;;;;;;3.80;2.95;;;;;;;18.24;65.29;99747.78;5103937;27;20080;-71
2022/05/24 05:16:56;;;;;;;7.65;3.03;;;;;;;18.62;64.10;99751.97;5109430;28;20097;-70
2022/05/24 05:19:23;;;;;;;5.13;3.03;;;;;;;19.03;62.62;99750.41;5111402;28;20069;-70
2022/05/24 05:21:50;;;;;;;6.25;3.00;;;;;;;19.24;62.74;99756.19;5112395;27;20050;-70
2022/05/24 05:24:16;;;;;;;4.45;2.95;;;;;;;19.69;61.05;99755.91;5113297;27;20092;-70
2022/05/24 05:26:43;;;;;;;5.35;3.10;;;;;;;20.02;59.75;99759.50;5114334;28;20161;-71
2022/05/24 05:29:09;;;;;;;7.35;3.38;;;;;;;20.10;59.29;99764.84;5110782;28;20052;-71
2022/05/24 05:31:34;;;;;;;4.72;2.70;;;;;;;20.05;58.81;99760.00;5113092;28;20047;-71
2022/05/24 05:34:02;;;;;;;5.68;3.00;;;;;;;20.11;58.05;99759.34;5112436;28;20040;-71
2022/05/24 05:36:31;;;;;;;4.10;2.40;;;;;;;20.14;58.08;99772.31;5108044;27;20422;-71
2022/05/24 05:38:58;;;;;;;4.45;2.42;;;;;;;20.08;57.67;99770.31;5111976;27;20063;-70
2022/05/24 05:41:28;;;;;;;3.70;2.17;;;;;;;20.51;56.79;99771.88;5111668;27;20514;-70
2022/05/24 05:43:55;;;;;;;4.05;2.25;;;;;;;20.35;56.70;99783.38;5110366;27;20050;-71
2022/05/24 05:46:22;;;;;;;5.07;2.35;;;;;;;20.30;56.46;99782.19;5112222;27;20040;-71
2022/05/24 05:48:48;;;;;;;4.07;2.17;;;;;;;20.36;56.27;99787.69;5111135;28;20388;-70
2022/05/24 05:51:17;;;;;;;4.95;2.42;;;;;;;20.47;56.15;99801.69;5111068;28;20093;-70
2022/05/24 05:53:45;;;;;;;3.72;2.20;;;;;;;20.04;56.84;99792.91;5111247;27;20039;-70
2022/05/24 05:56:15;;;;;;;4.85;2.40;;;;;;;19.76;58.11;99795.00;5112194;28;20403;-71
2022/05/24 05:58:42;;;;;;;8.68;2.58;;;;;;;20.00;57.36;99794.25;5109561;28;20083;-70
2022/05/24 06:01:15;;;;;;;5.10;2.28;;;;;;;20.09;58.01;99801.25;5110960;28;20043;-71
2022/05/24 06:03:41;;;;;;;3.88;2.30;;;;;;;20.21;56.60;99807.94;5111729;27;20059;-71
2022/05/24 06:06:10;;;;;;;3.90;2.17;;;;;;;20.24;56.94;99814.78;5111155;28;20077;-71
2022/05/24 06:08:36;;;;;;;5.30;2.45;;;;;;;20.33;57.01;99821.78;5110621;27;20556;-71
2022/05/24 06:11:04;;;;;;;5.80;2.35;;;;;;;20.65;56.39;99823.69;5109107;27;20136;-71
2022/05/24 06:13:30;;;;;;;4.57;2.10;;;;;;;20.63;56.79;99839.81;5110771;27;20089;-71
2022/05/24 06:15:57;;;;;;;4.22;2.15;;;;;;;21.04;54.57;99835.31;5107016;27;20420;-70
2022/05/24 06:18:23;;;;;;;2.85;1.80;;;;;;;21.25;53.71;99835.66;5111080;27;20063;-70
2022/05/24 06:20:49;;;;;;;6.38;2.20;;;;;;;21.52;52.73;99836.28;5108643;27;20634;-70
2022/05/24 06:23:15;;;;;;;5.03;2.38;;;;;;;21.30;53.59;99833.31;5108218;27;20048;-70
2022/05/24 06:25:42;;;;;;;6.65;2.55;;;;;;;21.60;53.20;99825.56;5108691;27;20039;-70
2022/05/24 06:28:12;;;;;;;3.38;2.05;;;;;;;22.08;53.14;99833.41;5108869;28;20051;-70
2022/05/24 06:30:39;;;;;;;3.63;1.63;;;;;;;22.26;51.66;99841.16;5106060;28;20077;-70
2022/05/24 06:33:06;;;;;;;5.25;2.50;;;;;;;22.98;49.27;99839.84;5108368;28;20457;-71
2022/05/24 06:35:32;;;;;;;3.38;1.90;;;;;;;22.75;48.51;99852.38;5109892;27;20048;-71
2022/05/24 06:37:58;;;;;;;3.25;1.92;;;;;;;22.36;51.08;99841.75;5109461;28;20662;-71
2022/05/24 06:40:25;;;;;;;3.80;1.80;;;;;;;23.14;50.50;99845.03;5109777;28;20048;-71
2022/05/24 06:42:51;;;;;;;4.40;2.58;;;;;;;23.45;47.60;99852.97;5101234;27;20725;-71
2022/05/24 06:45:19;;;;;;;4.97;2.00;;;;;;;23.45;47.72;99862.81;5108693;27;20044;-71
2022/05/24 06:47:46;;;;;;;2.83;2.17;;;;;;;23.75;47.26;99859.16;5108762;27;20043;-71
2022/05/24 06:50:14;;;;;;;5.18;2.55;;;;;;;22.87;50.20;99874.19;5106409;27;20071;-71
2022/05/24 06:52:41;;;;;;;3.53;2.00;;;;;;;22.77;48.54;99874.41;5108429;27;20455;-71
2022/05/24 06:55:08;;;;;;;5.63;2.50;;;;;;;22.60;48.40;99872.84;5108437;27;20104;-71
2022/05/24 06:57:34;;;;;;;5.32;2.20;;;;;;;22.69;48.73;99874.47;5109310;27;20605;-71
2022/05/24 07:02:48;;;;;;;3.38;1.92;;;;;;;22.88;49.79;99884.69;5107828;27;20128;-71
2022/05/24 07:05:19;;;;;;;3.40;1.80;;;;;;;23.33;46.86;99877.63;5108347;27;20475;-71
2022/05/24 07:07:46;;;;;;;3.75;1.77;;;;;;;23.12;48.57;99887.19;5107255;27;20053;-71
2022/05/24 07:10:15;;;;;;;5.70;1.88;;;;;;;22.50;48.77;99882.94;5108010;27;20134;-71
2022/05/24 07:12:42;;;;;;;3.17;1.77;;;;;;;22.25;49.36;99887.56;5107411;27;20058;-71
2022/05/24 07:15:10;;;;;;;3.75;2.03;;;;;;;22.28;49.91;99897.91;5106254;27;20055;-71
2022/05/24 07:17:37;;;;;;;3.80;2.20;;;;;;;22.27;51.21;99902.41;5101632;27;20138;-72
2022/05/24 07:20:08;;;;;;;5.72;3.28;;;;;;;22.02;52.05;99898.19;5117925;27;20050;-72
2022/05/24 07:22:35;;;;;;;4.82;3.08;;;;;;;22.53;50.06;99894.09;5105622;28;20100;-70
2022/05/24 07:25:02;;;;;;;5.22;2.10;;;;;;;21.45;52.14;99904.63;5109339;28;20126;-72
2022/05/24 07:27:28;;;;;;;3.58;2.05;;;;;;;21.50;51.49;99903.13;5108165;28;20052;-71
2022/05/24 07:29:54;;;;;;;3.75;1.98;;;;;;;21.47;52.65;99910.66;5106657;27;20044;-71
2022/05/24 07:32:21;;;;;;;4.78;2.25;;;;;;;21.33;51.49;99904.13;5108436;28;20476;-71
2022/05/24 07:34:47;;;;;;;3.05;1.90;;;;;;;21.68;51.39;99905.59;5107720;28;20055;-71
2022/05/24 07:37:17;;;;;;;5.03;2.38;;;;;;;22.26;49.76;99903.41;5106153;27;20059;-71
2022/05/24 07:39:44;;;;;;;2.83;1.80;;;;;;;22.92;50.93;99911.91;5107449;28;20096;-71
2022/05/24 07:47:38;;;;;;;4.25;2.53;;;;;;;23.25;48.21;99919.47;5107960;28;20399;-71
2022/05/24 07:50:06;;;;;;;3.15;2.10;;;;;;;22.60;49.26;99911.09;5106890;27;21294;-71
2022/05/24 07:52:33;;;;;;;3.65;2.20;;;;;;;22.56;49.89;99917.78;5107444;28;20062;-71
2022/05/24 07:55:00;;;;;;;4.60;2.60;;;;;;;22.36;49.83;99913.88;5106130;28;20047;-71
2022/05/24 07:57:26;;;;;;;4.55;2.50;;;;;;;22.93;49.53;99902.88;5108547;27;20082;-71
2022/05/24 07:59:52;;;;;;;5.18;2.60;;;;;;;23.56;47.03;99905.19;5105801;28;20043;-71
2022/05/24 08:02:20;;;;;;;4.10;2.25;;;;;;;24.19;47.56;99896.63;5106935;27;20051;-71
2022/05/24 08:04:47;;;;;;;5.47;2.80;;;;;;;23.70;48.95;99897.19;5106698;28;20048;-71
2022/05/24 08:07:13;;;;;;;5.70;2.65;;;;;;;24.01;48.33;99894.31;5108668;27;20039;-72
2022/05/24 08:09:41;;;;;;;4.20;2.50;;;;;;;24.23;46.47;99898.75;5117021;27;20445;-72
2022/05/24 08:12:08;;;;;;;5.07;3.22;;;;;;;23.25;49.83;99902.59;5107086;27;20092;-72
2022/05/24 08:14:34;;;;;;;5.45;2.90;;;;;;;22.45;48.94;99904.81;5105267;27;20560;-72
2022/05/24 08:17:00;;;;;;;5.45;3.33;;;;;;;22.42;50.42;99902.50;5107038;27;20071;-72
2022/05/24 08:19:27;;;;;;;5.75;3.33;;;;;;;22.98;49.62;99911.19;5104864;27;20128;-72
2022/05/24 08:21:53;;;;;;;5.72;3.63;;;;;;;21.65;52.54;99903.28;5105544;28;20040;-71
2022/05/24 08:24:20;;;;;;;7.15;3.58;;;;;;;21.78;54.58;99906.22;5106478;28;20088;-71
2022/05/24 08:26:47;;;;;;;4.90;3.10;;;;;;;21.05;54.48;99903.63;5104452;28;20111;-71
2022/05/24 08:29:14;;;;;;;4.43;3.28;;;;;;;21.33;53.39;99907.66;5105414;28;20071;-71
2022/05/24 08:31:40;;;;;;;5.50;3.00;;;;;;;22.48;49.70;99892.94;5105484;28;20044;-71
2022/05/24 08:34:07;;;;;;;3.40;2.67;;;;;;;22.54;50.55;99893.06;5104645;28;20067;-71
2022/05/24 08:36:35;;;;;;;3.47;2.47;;;;;;;22.85;49.43;99898.41;5105723;27;20050;-71
2022/05/24 08:39:01;;;;;;;5.53;3.05;;;;;;;22.92;50.51;99903.88;5106369;27;20124;-71
2022/05/24 08:41:39;;;;;;;3.92;2.55;;;;;;;21.88;50.32;99906.88;5104836;28;20130;-71
2022/05/24 08:49:55;;;;;;;4.13;2.42;;;;;;;23.25;49.45;99903.44;5104273;27;20139;-71
2022/05/24 08:52:23;;;;;;;3.42;2.45;;;;;;;23.15;47.66;99897.50;5107347;27;20048;-71
2022/05/24 08:54:51;;;;;;;4.88;2.55;;;;;;;23.41;49.61;99901.63;5107627;27;20043;-71
2022/05/24 08:57:24;;;;;;;5.47;3.10;;;;;;;23.56;46.43;99895.31;5105316;27;20115;-71
2022/05/24 08:59:57;;;;;;;6.90;3.00;;;;;;;24.44;45.77;99881.06;5106321;27;20516;-71
2022/05/24 09:02:24;;;;;;;5.90;2.85;;;;;;;24.94;45.14;99883.69;5104659;27;20048;-71
2022/05/24 09:04:50;;;;;;;4.70;3.10;;;;;;;25.18;44.98;99888.63;5104320;27;20046;-71
2022/05/24 09:07:25;;;;;;;4.70;2.70;;;;;;;25.13;43.67;99898.28;5106849;27;20445;-71
2022/05/24 09:10:02;;;;;;;3.63;2.28;;;;;;;25.24;46.58;99900.44;5105496;27;20451;-71
2022/05/24 09:12:39;;;;;;;7.90;3.25;;;;;;;24.98;46.58;99894.88;5104175;27;20108;-71
2022/05/24 09:15:15;;;;;;;2.55;2.30;;;;;;;25.66;42.83;99902.25;5104821;27;20495;-71
2022/05/24 09:17:58;;;;;;;3.17;2.50;;;;;;;24.16;45.80;99900.53;5105975;27;20039;-71
2022/05/24 09:20:32;;;;;;;4.22;2.70;;;;;;;24.55;48.64;99905.50;5085669;28;20068;-71
2022/05/24 09:23:04;;;;;;;5.80;2.35;;;;;;;25.29;46.67;99902.53;5092074;28;20050;-70
2022/05/24 09:25:30;;;;;;;3.17;2.20;;;;;;;25.55;43.75;99905.47;5103400;28;20055;-70
2022/05/24 09:27:57;;;;;;;3.55;2.40;;;;;;;25.56;41.88;99904.44;5104005;28;20044;-70
2022/05/24 09:30:36;;;;;;;5.72;2.60;;;;;;;24.90;42.78;99916.44;5105701;28;20093;-70
2022/05/24 09:33:19;;;;;;;8.07;2.65;;;;;;;25.48;43.82;99901.88;5105106;28;20036;-70
2022/05/24 09:35:48;;;;;;;3.88;2.67;;;;;;;24.54;43.32;99919.09;5104279;28;20108;-72
2022/05/24 09:38:17;;;;;;;3.92;2.90;;;;;;;24.35;46.29;99920.56;5107700;27;21364;-73
2022/05/24 09:40:55;;;;;;;4.68;3.20;;;;;;;23.45;46.96;99908.31;5096571;27;20079;-72
2022/05/24 09:43:27;;;;;;;4.30;2.60;;;;;;;23.01;48.54;99925.03;5102985;27;20039;-71
2022/05/24 09:46:04;;;;;;;3.90;2.45;;;;;;;23.07;49.35;99923.47;5098285;27;20039;-71
2022/05/24 09:48:33;;;;;;;5.05;2.75;;;;;;;22.47;49.04;99913.47;5103538;27;20496;-71
2022/05/24 09:51:03;;;;;;;3.35;2.53;;;;;;;22.18;49.60;99922.13;5105340;27;20592;-72
2022/05/24 09:53:31;;;;;;;4.18;2.42;;;;;;;22.10;50.38;99916.00;5105737;27;20040;-72
2022/05/24 09:56:00;;;;;;;4.78;3.10;;;;;;;21.48;51.50;99931.81;5104429;27;20048;-72
2022/05/24 09:58:33;;;;;;;4.07;2.67;;;;;;;21.76;51.52;99922.44;5104663;27;20418;-71
2022/05/24 10:01:04;;;;;;;5.25;2.90;;;;;;;21.95;51.74;99929.22;5105029;27;20051;-71
2022/05/24 10:03:39;;;;;;;5.40;2.78;;;;;;;22.08;51.51;99932.19;5107059;27;20448;-72
2022/05/24 10:06:20;;;;;;;3.53;2.33;;;;;;;22.07;50.74;99933.19;5107320;27;20048;-71
2022/05/24 10:08:50;;;;;;;4.28;2.65;;;;;;;21.66;52.52;99940.44;5109222;27;20043;-71
2022/05/24 10:11:25;;;;;;;5.63;2.40;;;;;;;21.93;52.07;99941.09;5109592;27;20561;-72
2022/05/24 10:14:04;;;;;;;5.03;2.50;;;;;;;21.94;51.86;99942.75;5107582;27;20069;-71
2022/05/24 10:16:37;;;;;;;7.47;2.80;;;;;;;21.01;53.11;99960.94;5108398;27;20415;-71
2022/05/24 10:19:28;;;;;;;3.85;2.83;;;;;;;21.00;54.38;99963.75;5105863;27;20112;-71
2022/05/24 10:22:03;;;;;;;8.63;2.97;;;;;;;21.16;52.91;99954.00;5101768;28;20481;-70
2022/05/24 10:24:44;;;;;;;4.35;2.92;;;;;;;21.38;53.48;99963.16;5107246;28;20050;-71
2022/05/24 10:27:19;;;;;;;4.95;3.28;;;;;;;20.78;55.30;99965.22;5110002;27;20043;-71
2022/05/24 10:29:54;;;;;;;8.50;3.40;;;;;;;20.74;55.84;99959.38;5108191;28;20100;-71
2022/05/24 10:38:28;;;;;;;5.80;2.67;;;;;;;20.65;55.82;99959.53;5110688;28;20498;-70
2022/05/24 10:41:04;;;;;;;6.32;2.30;;;;;;;20.90;54.68;99969.25;5108573;28;20062;-69
2022/05/24 10:43:46;;;;;;;6.30;2.67;;;;;;;20.51;56.43;99976.16;5109302;27;20105;-71
2022/05/24 10:46:16;;;;;;;6.03;1.95;;;;;;;20.19;57.57;99968.81;5107265;27;20040;-71
2022/05/24 10:48:48;;;;;;;6.93;1.90;;;;;;;20.23;58.47;99986.97;5108015;27;20063;-72
2022/05/24 10:51:21;;;;;;;5.15;2.45;;;;;;;20.43;57.61;99994.75;5109953;27;20048;-71
2022/05/24 10:53:53;;;;;;;4.95;2.08;;;;;;;20.22;58.88;100005.75;5105988;27;20047;-70
2022/05/24 10:56:30;;;;;;;4.27;2.43;;;;;;;20.13;61.62;100014.69;5109772;27;20077;-70
2022/05/24 10:59:01;;;;;;;3.45;2.70;;;;;;;20.15;65.83;100042.81;5106564;27;20460;-69
2022/05/24 11:01:32;;;;;;;3.30;2.00;;;;;;;19.36;68.53;100044.69;5106803;27;20079;-69
2022/05/24 11:04:06;;;;;;;7.38;2.30;;;;;;;18.88;70.44;100050.31;5108196;27;20576;-69
2022/05/24 11:06:38;;;;;;;3.03;1.90;;;;;;;19.16;72.33;100054.59;5108683;27;20468;-69
2022/05/24 11:09:10;;;;;;;5.88;2.05;;;;;;;19.39;69.95;100052.34;5106701;27;20043;-70
2022/05/24 11:11:44;;;;;;;3.55;2.22;;;;;;;19.85;71.72;100059.22;5106679;27;20051;-70
2022/05/24 11:14:16;;;;;;;5.40;2.00;;;;;;;20.24;68.95;100060.53;5107592;27;20120;-70
2022/05/24 11:16:44;;;;;;;4.05;2.22;;;;;;;19.89;67.81;100068.59;5105620;27;20093;-70
2022/05/24 11:19:15;;;;;;;2.70;2.10;;;;;;;19.99;68.43;100069.34;5107528;27;20075;-70
2022/05/24 11:21:46;;;;;;;4.45;2.10;;;;;;;19.99;68.61;100064.03;5108242;27;20507;-70
2022/05/24 11:24:18;;;;;;;4.05;2.30;;;;;;;19.75;69.65;100072.63;5105608;27;20054;-70
2022/05/24 11:26:48;;;;;;;;;;;;;;;19.94;66.68;100068.97;5108360;27;20047;-70
2022/05/24 11:29:19;;;;;;;5.47;2.00;;;;;;;20.39;65.59;100072.28;5105771;27;19924;-70
2022/05/24 11:31:48;;;;;;;3.00;1.63;;;;;;;20.57;63.80;100076.69;5108424;28;20096;-70
2022/05/24 11:34:21;;;;;;;5.82;1.55;;;;;;;20.81;61.07;100071.47;5106877;27;20051;-70
2022/05/24 11:37:01;;;;;;;3.08;1.35;;;;;;;21.03;59.87;100080.69;5106903;28;20446;-70
2022/05/24 11:39:31;;;;;;;1.88;1.30;;;;;;;21.17;57.89;100077.47;5107423;27;20548;-70
2022/05/24 11:42:25;;;;;;;5.22;1.42;;;;;;;21.27;60.80;100083.47;5106614;27;20552;-70
2022/05/24 11:44:54;;;;;;;2.45;1.17;;;;;;;21.33;57.02;100096.16;5100530;27;20081;-70
2022/05/24 11:47:56;;;;;;;3.25;1.05;;;;;;;20.76;55.71;100111.09;5110694;27;20075;-70
2022/05/24 11:50:45;;;;;;;7.50;0.97;;;;;;;20.77;56.01;100118.91;5059627;28;20044;-71
2022/05/24 11:53:27;;;;;;;3.20;1.30;;;;;;;20.27;57.07;100126.75;5059540;28;20652;-71
2022/05/24 11:56:17;;;;;;;3.15;1.15;;;;;;;19.92;55.84;100129.47;5094589;28;20040;-71
2022/05/24 11:58:53;;;;;;;2.10;0.95;;;;;;;20.49;56.01;100141.41;5103679;27;20044;-71
2022/05/24 12:01:52;;;;;;;2.78;1.38;;;;;;;20.54;55.02;100132.97;5106935;27;20043;-71
2022/05/24 12:10:46;;;;;;;4.18;1.25;;;;;;;20.52;54.45;100167.72;5097579;27;20058;-71
2022/05/24 12:13:27;;;;;;;1.58;0.90;;;;;;;20.63;53.85;100185.28;5096270;27;20677;-71
2022/05/24 12:15:56;;;;;;;2.63;0.88;;;;;;;20.53;53.94;100193.38;5100080;27;20039;-71
2022/05/24 12:18:24;;;;;;;3.72;1.20;;;;;;;20.22;55.75;100178.78;5106674;27;20055;-71
2022/05/24 12:20:58;;;;;;;3.55;1.10;;;;;;;20.06;55.08;100192.81;5103205;28;20416;-71
2022/05/24 12:23:40;;;;;;;2.25;1.20;;;;;;;20.53;56.72;100180.06;5105703;28;20066;-71
2022/05/24 12:26:08;;;;;;;4.57;1.48;;;;;;;20.97;54.93;100180.81;5104462;27;20073;-71
2022/05/24 12:28:48;;;;;;;4.00;1.50;;;;;;;21.35;52.85;100182.16;5106085;28;20513;-71
2022/05/24 12:31:30;;;;;;;3.00;1.38;;;;;;;21.67;50.89;100181.41;5104950;28;20035;-71
2022/05/24 12:33:58;;;;;;;6.05;2.13;;;;;;;21.10;52.75;100183.84;5105485;28;20054;-71
2022/05/24 12:36:30;;;;;;;4.38;2.17;;;;;;;20.85;52.92;100182.06;5107409;28;20039;-71
2022/05/24 12:39:10;;;;;;;5.30;2.10;;;;;;;20.59;53.66;100191.91;5105666;27;20108;-71